Time;durP1;ratioP1;P1;durP2;ratioP2;P2;SDS_P1;SDS_P2;PMS_P1;PMS_P2;Temp;Humidity;BMP_temperature;BMP_pressure;BME280_temperature;BME280_humidity;BME280_pressure;Samples;Min_cycle;Max_cycle;Signal;HPM_P1;HPM_P2
2021/12/10 00:00:33;;;;;;;;;8.75;4.00;;;;;5.85;81.87;99173.50;4978267;28;45470;-46
2021/12/10 00:03:01;;;;;;;;;8.75;4.75;;;;;5.85;82.72;99163.78;4978417;28;45365;-50
2021/12/10 00:05:33;;;;;;;;;2.50;2.50;;;;;5.85;81.04;99158.50;4978530;28;45329;-47
2021/12/10 00:07:59;;;;;;;;;11.00;3.00;;;;;5.81;82.53;99153.69;4978096;28;46150;-48
2021/12/10 00:10:31;;;;;;;;;5.50;4.25;;;;;5.78;82.43;99127.63;4977759;28;45413;-48
2021/12/10 00:12:57;;;;;;;;;7.00;6.50;;;;;5.75;83.62;99105.00;4978018;28;45545;-49
2021/12/10 00:15:26;;;;;;;;;15.25;8.25;;;;;5.76;82.70;99112.75;4978329;28;45394;-48
2021/12/10 00:17:53;;;;;;;;;5.25;3.00;;;;;5.73;82.72;99091.97;4977993;28;45256;-56
2021/12/10 00:20:20;;;;;;;;;6.00;6.00;;;;;5.71;83.43;99079.91;4977895;28;45318;-46
2021/12/10 00:22:53;;;;;;;;;1.50;1.50;;;;;5.70;82.45;99070.34;4978395;28;45375;-55
2021/12/10 00:25:24;;;;;;;;;5.00;5.00;;;;;5.64;83.54;99053.31;4978329;28;45709;-57
2021/12/10 00:27:52;;;;;;;;;7.50;4.25;;;;;5.73;83.67;99038.38;4977857;28;47174;-57
2021/12/10 00:30:26;;;;;;;;;13.00;8.25;;;;;5.70;84.04;99023.69;4977971;28;45347;-57
2021/12/10 00:33:01;;;;;;;;;2.00;2.00;;;;;5.70;83.73;99002.59;4976934;28;45407;-58
2021/12/10 00:35:29;;;;;;;;;2.50;1.00;;;;;5.68;83.22;98987.88;4977704;28;45365;-54
2021/12/10 00:37:55;;;;;;;;;1.00;1.00;;;;;5.61;84.50;98979.78;4977622;28;46639;-48
2021/12/10 00:40:22;;;;;;;;;1.25;0.00;;;;;5.59;84.85;98970.38;4977588;28;45323;-53
2021/12/10 00:42:48;;;;;;;;;1.00;1.00;;;;;5.53;84.06;98958.66;4977903;28;45312;-48
2021/12/10 00:45:16;;;;;;;;;1.00;1.00;;;;;5.54;83.81;98970.03;4977771;28;45555;-56
2021/12/10 00:47:42;;;;;;;;;0.50;0.50;;;;;5.48;83.63;98959.13;4976029;28;46380;-47
2021/12/10 00:50:12;;;;;;;;;1.00;0.00;;;;;5.60;83.26;98979.94;4977536;28;45335;-54
2021/12/10 00:52:37;;;;;;;;;2.00;2.00;;;;;5.57;83.06;98983.72;4977750;28;45447;-57
2021/12/10 00:55:05;;;;;;;;;10.50;5.50;;;;;5.59;82.68;98959.81;4977664;28;45360;-54
2021/12/10 00:57:30;;;;;;;;;6.75;5.50;;;;;5.66;82.90;98977.50;4976624;28;45508;-58
2021/12/10 00:59:56;;;;;;;;;5.00;4.50;;;;;5.65;82.79;98952.13;4977258;28;45276;-56
2021/12/10 01:02:24;;;;;;;;;5.50;5.50;;;;;5.62;83.42;98943.69;4977733;28;45375;-48
2021/12/10 01:04:54;;;;;;;;;5.00;2.50;;;;;5.62;83.36;98943.69;4978002;28;45227;-51
2021/12/10 01:07:23;;;;;;;;;5.00;2.50;;;;;5.60;83.43;98919.28;4976345;28;45637;-56
2021/12/10 01:09:52;;;;;;;;;12.25;9.50;;;;;5.57;83.51;98901.97;4977228;28;45342;-55
2021/12/10 01:12:32;;;;;;;;;14.75;5.00;;;;;5.53;83.99;98884.00;4977079;28;45599;-50
2021/12/10 01:23:56;;;;;;;;;4.50;3.50;;;;;5.37;84.23;98845.19;4936018;28;45452;-49
2021/12/10 01:29:19;;;;;;;;;14.75;9.25;;;;;5.44;83.98;98844.41;4931918;28;46240;-49
2021/12/10 01:31:45;;;;;;;;;12.00;11.00;;;;;5.45;84.02;98845.22;4935707;28;45424;-49
2021/12/10 01:34:11;;;;;;;;;10.50;6.25;;;;;5.45;84.58;98840.78;4935539;28;45888;-47
2021/12/10 01:36:38;;;;;;;;;8.25;4.75;;;;;5.48;83.60;98832.56;4936069;28;45392;-47
2021/12/10 01:39:08;;;;;;;;;3.50;1.75;;;;;5.50;84.49;98835.00;4935481;28;46287;-46
2021/12/10 01:41:38;;;;;;;;;2.50;1.00;;;;;5.51;84.15;98834.03;4935382;28;45490;-50
2021/12/10 01:44:14;;;;;;;;;6.50;5.75;;;;;5.54;84.64;98827.59;4935833;28;45369;-57
2021/12/10 01:46:41;;;;;;;;;7.25;3.00;;;;;5.58;84.43;98832.41;4935813;28;45368;-46
2021/12/10 01:49:09;;;;;;;;;4.50;2.00;;;;;5.59;86.08;98814.75;4935189;28;46465;-48
2021/12/10 01:51:37;;;;;;;;;4.00;4.00;;;;;5.56;85.49;98809.78;4935599;28;45369;-56
2021/12/10 01:54:07;;;;;;;;;1.00;0.00;;;;;5.60;85.65;98805.84;4942725;28;45578;-48
2021/12/10 01:56:37;;;;;;;;;4.50;1.75;;;;;5.60;86.08;98801.41;4976710;28;45431;-55
2021/12/10 01:59:06;;;;;;;;;4.00;0.25;;;;;5.61;85.66;98795.16;4976502;28;46262;-55
2021/12/10 02:01:38;;;;;;;;;3.00;1.75;;;;;5.60;86.10;98801.41;4974932;28;45769;-55
2021/12/10 02:04:06;;;;;;;;;5.00;1.00;;;;;5.60;84.55;98792.66;4976656;28;45344;-51
2021/12/10 02:06:32;;;;;;;;;9.00;3.50;;;;;5.63;85.00;98773.88;4976889;28;45490;-55
2021/12/10 02:08:57;;;;;;;;;1.00;1.00;;;;;5.64;83.46;98780.81;4976425;28;45344;-55
2021/12/10 02:11:23;;;;;;;;;8.75;8.00;;;;;5.66;83.81;98771.75;4976301;28;45409;-56
2021/12/10 02:13:49;;;;;;;;;8.00;6.50;;;;;5.68;83.80;98772.41;4976462;28;45406;-56
2021/12/10 02:16:15;;;;;;;;;12.00;7.00;;;;;5.58;83.97;98752.44;4976619;28;45609;-54
2021/12/10 02:18:40;;;;;;;;;3.75;2.00;;;;;5.73;83.99;98764.84;4976505;28;45456;-47
2021/12/10 02:21:09;;;;;;;;;12.75;8.25;;;;;5.75;83.70;98775.22;4976226;28;46167;-50
2021/12/10 02:23:39;;;;;;;;;2.25;1.00;;;;;5.79;83.57;98746.69;4976684;28;45371;-49
2021/12/10 02:26:08;;;;;;;;;2.00;0.00;;;;;5.84;83.38;98750.47;4977560;28;45440;-49
2021/12/10 02:28:34;;;;;;;;;1.00;1.00;;;;;5.80;83.80;98743.88;4977773;28;46444;-50
2021/12/10 02:31:00;;;;;;;;;3.50;2.25;;;;;5.86;83.05;98747.69;4979138;28;45350;-48
2021/12/10 02:33:27;;;;;;;;;2.00;1.00;;;;;5.89;83.82;98739.41;4979261;28;45271;-49
2021/12/10 02:35:52;;;;;;;;;0.75;0.00;;;;;5.82;83.86;98730.53;4979107;28;45454;-48
2021/12/10 02:38:19;;;;;;;;;1.00;1.00;;;;;5.96;83.42;98732.53;4977437;28;47701;-48
2021/12/10 02:40:46;;;;;;;;;2.00;0.00;;;;;5.99;83.11;98727.75;4975900;28;45421;-49
2021/12/10 02:43:13;;;;;;;;;1.00;1.00;;;;;6.02;82.89;98723.94;4976041;28;45409;-47
2021/12/10 02:45:41;;;;;;;;;0.25;0.25;;;;;6.04;82.14;98731.72;4977994;28;45450;-48
2021/12/10 02:48:07;;;;;;;;;0.00;0.00;;;;;5.99;82.62;98690.81;4976444;28;46672;-48
2021/12/10 02:50:34;;;;;;;;;3.25;0.00;;;;;5.98;83.56;98681.25;4975692;28;45475;-48
2021/12/10 02:53:01;;;;;;;;;1.50;1.50;;;;;5.94;82.95;98679.94;4975907;28;45443;-54
2021/12/10 02:55:28;;;;;;;;;4.50;2.00;;;;;5.99;83.51;98704.00;4975932;28;45433;-54
2021/12/10 02:57:57;;;;;;;;;0.75;0.75;;;;;6.03;83.47;98701.03;4975730;28;45421;-55
2021/12/10 03:00:27;;;;;;;;;1.75;1.00;;;;;6.10;83.06;98694.88;4975496;28;45612;-48
2021/12/10 03:02:53;;;;;;;;;1.00;1.00;;;;;6.10;82.62;98673.78;4975935;28;45382;-53
2021/12/10 03:05:20;;;;;;;;;0.75;0.00;;;;;6.12;82.45;98681.53;4977307;28;45375;-56
2021/12/10 03:07:45;;;;;;;;;2.00;0.00;;;;;6.11;83.48;98662.25;4976352;28;46330;-55
2021/12/10 03:10:17;;;;;;;;;0.50;0.00;;;;;6.18;82.39;98665.00;4975969;28;45320;-56
2021/12/10 03:12:44;;;;;;;;;1.00;1.00;;;;;6.15;82.79;98667.97;4975713;28;45352;-55
2021/12/10 03:15:11;;;;;;;;;1.00;1.00;;;;;6.20;82.89;98674.41;4975781;28;45212;-49
2021/12/10 03:17:36;;;;;;;;;6.00;2.00;;;;;6.25;83.50;98673.91;4975525;28;46288;-49
2021/12/10 03:20:08;;;;;;;;;2.00;1.50;;;;;6.32;83.58;98668.75;4975600;28;45387;-50
2021/12/10 03:22:34;;;;;;;;;1.75;1.00;;;;;6.38;83.56;98681.28;4979022;28;45229;-58
2021/12/10 03:24:59;;;;;;;;;1.75;1.00;;;;;6.44;83.14;98677.97;4979005;28;45149;-57
2021/12/10 03:27:25;;;;;;;;;3.25;1.75;;;;;6.42;83.51;98666.75;4978874;28;45730;-51
2021/12/10 03:29:51;;;;;;;;;2.00;2.00;;;;;6.49;83.31;98681.75;4978760;28;45382;-49
2021/12/10 03:32:23;;;;;;;;;1.00;1.00;;;;;6.47;83.17;98678.44;4979040;28;45427;-57
2021/12/10 03:34:49;;;;;;;;;4.25;1.00;;;;;6.48;83.60;98671.34;4978781;28;45511;-50
2021/12/10 03:37:17;;;;;;;;;1.00;1.00;;;;;6.58;83.16;98681.72;4978605;28;45747;-55
2021/12/10 03:39:44;;;;;;;;;0.00;0.00;;;;;6.65;83.29;98672.91;4976960;28;45461;-49
2021/12/10 03:42:10;;;;;;;;;0.50;0.50;;;;;6.72;83.47;98675.69;4978294;28;45362;-54
2021/12/10 03:44:35;;;;;;;;;0.25;0.25;;;;;6.78;83.07;98682.09;4978646;28;45401;-47
2021/12/10 03:47:03;;;;;;;;;2.00;0.00;;;;;6.82;83.27;98678.94;4978469;28;46040;-48
2021/12/10 03:49:28;;;;;;;;;2.00;0.00;;;;;6.89;83.40;98687.84;4978646;28;45391;-57
2021/12/10 03:51:55;;;;;;;;;0.00;0.00;;;;;6.84;83.49;98662.94;4978772;28;45288;-50
2021/12/10 03:54:21;;;;;;;;;2.00;0.00;;;;;6.98;83.76;98675.41;4978841;28;45212;-57
2021/12/10 03:56:48;;;;;;;;;0.00;0.00;;;;;7.02;83.50;98668.75;4978647;28;46004;-58
2021/12/10 03:59:17;;;;;;;;;1.75;0.00;;;;;7.09;83.02;98671.53;4978555;28;45423;-58
2021/12/10 04:01:46;;;;;;;;;0.00;0.00;;;;;7.10;83.54;98666.06;4978554;28;45314;-48
2021/12/10 04:04:18;;;;;;;;;0.00;0.00;;;;;7.19;83.27;98685.34;4979021;28;45427;-49
2021/12/10 04:06:44;;;;;;;;;0.00;0.00;;;;;7.26;84.38;98675.72;4978317;28;46469;-55
2021/12/10 04:09:10;;;;;;;;;2.00;0.00;;;;;7.34;83.54;98682.78;4978087;28;45402;-54
2021/12/10 04:11:39;;;;;;;;;0.33;0.33;;;;;7.38;83.65;98676.97;4978218;28;45302;-52
2021/12/10 04:14:05;;;;;;;;;1.25;1.25;;;;;7.45;83.65;98679.69;4978472;28;45438;-57
2021/12/10 04:16:33;;;;;;;;;0.00;0.00;;;;;7.50;83.95;98686.13;4977985;28;46394;-57
2021/12/10 04:19:03;;;;;;;;;2.00;0.00;;;;;7.57;83.98;98682.75;4978253;28;45342;-47
2021/12/10 04:21:29;;;;;;;;;0.67;0.33;;;;;7.57;83.97;98667.69;4978305;28;45561;-52
2021/12/10 04:23:54;;;;;;;;;2.67;1.33;;;;;7.68;82.78;98677.06;4978440;28;45412;-49
2021/12/10 04:26:21;;;;;;;;;1.00;1.00;;;;;7.69;83.51;98679.50;4978126;28;46419;-53
2021/12/10 04:28:47;;;;;;;;;1.00;1.00;;;;;7.73;83.12;98672.84;4978115;28;45525;-49
2021/12/10 04:31:13;;;;;;;;;0.00;0.00;;;;;7.78;82.81;98682.09;4978171;28;45408;-56
2021/12/10 04:33:39;;;;;;;;;5.75;1.75;;;;;7.83;82.75;98679.72;4977438;28;45306;-48
2021/12/10 04:36:07;;;;;;;;;4.00;1.00;;;;;7.88;82.75;98678.19;4977849;28;45957;-56
2021/12/10 04:38:33;;;;;;;;;1.00;0.00;;;;;7.92;82.50;98675.97;4978021;28;45474;-51
2021/12/10 04:41:02;;;;;;;;;4.00;2.00;;;;;7.97;82.12;98684.22;4978127;28;45369;-52
2021/12/10 04:43:30;;;;;;;;;2.00;2.00;;;;;8.00;82.72;98682.03;4978217;28;45515;-56
2021/12/10 04:45:58;;;;;;;;;2.00;0.33;;;;;8.04;81.96;98687.78;4977660;28;46101;-53
2021/12/10 04:48:26;;;;;;;;;4.00;2.00;;;;;8.05;82.23;98689.47;4977998;28;45452;-48
2021/12/10 04:50:51;;;;;;;;;1.00;1.00;;;;;8.05;81.86;98697.41;4978172;28;45421;-48
2021/12/10 04:53:17;;;;;;;;;6.33;2.00;;;;;8.03;82.00;98695.91;4960714;28;45541;-47
2021/12/10 04:55:45;;;;;;;;;1.00;1.00;;;;;8.05;81.54;98697.41;4977630;28;46157;-47
2021/12/10 04:58:11;;;;;;;;;1.00;1.00;;;;;7.99;81.60;98675.09;4977799;28;45424;-47
2021/12/10 05:00:46;;;;;;;;;1.00;1.00;;;;;8.11;80.76;98694.00;4977820;28;45504;-47
2021/12/10 05:03:13;;;;;;;;;1.33;1.33;;;;;8.14;81.33;98693.66;4961271;28;45331;-50
2021/12/10 05:05:40;;;;;;;;;4.00;2.00;;;;;8.19;81.18;98696.56;4977533;28;45362;-47
2021/12/10 05:08:06;;;;;;;;;2.00;2.00;;;;;8.23;81.21;98703.16;4977474;28;45587;-48
2021/12/10 05:10:33;;;;;;;;;2.00;2.00;;;;;8.25;80.83;98702.97;4977278;28;45503;-50
2021/12/10 05:12:59;;;;;;;;;2.67;2.67;;;;;8.28;81.04;98699.97;4977748;28;45353;-48
2021/12/10 05:15:28;;;;;;;;;3.67;2.00;;;;;8.29;80.38;98706.91;4976800;28;46221;-46
2021/12/10 05:17:55;;;;;;;;;8.33;4.33;;;;;8.32;80.09;98709.19;4977301;28;45330;-49
2021/12/10 05:20:35;;;;;;;;;5.00;2.00;;;;;8.33;80.43;98716.13;4977466;28;45586;-46
2021/12/10 05:23:02;;;;;;;;;7.33;3.33;;;;;8.35;79.96;98726.56;4977527;28;45383;-46
2021/12/10 05:25:29;;;;;;;;;1.00;1.00;;;;;8.36;79.10;98726.38;4977205;28;45456;-46
2021/12/10 05:27:56;;;;;;;;;7.33;3.33;;;;;8.38;78.97;98736.81;4976942;28;45433;-46
2021/12/10 05:30:24;;;;;;;;;4.00;2.00;;;;;8.38;79.92;98737.63;4977053;28;45403;-47
2021/12/10 05:32:50;;;;;;;;;0.00;0.00;;;;;8.36;78.64;98730.84;4977665;28;45475;-46
2021/12/10 05:35:16;;;;;;;;;0.67;0.67;;;;;8.39;78.67;98749.88;4976656;28;45406;-46
2021/12/10 05:37:43;;;;;;;;;2.67;0.67;;;;;8.40;79.12;98766.59;4976416;28;45625;-45
2021/12/10 05:40:12;;;;;;;;;2.33;1.33;;;;;8.41;78.48;98774.38;4977091;28;45442;-47
2021/12/10 05:42:43;;;;;;;;;2.67;2.00;;;;;8.40;78.63;98764.78;4977149;28;45272;-47
2021/12/10 05:45:10;;;;;;;;;1.00;1.00;;;;;8.39;78.89;98764.97;4976195;28;46187;-47
2021/12/10 05:47:35;;;;;;;;;0.00;0.00;;;;;8.38;77.87;98768.59;4976750;28;45501;-47
2021/12/10 05:50:01;;;;;;;;;1.00;1.00;;;;;8.36;78.71;98767.94;4976760;28;45436;-53
2021/12/10 05:52:27;;;;;;;;;1.33;1.00;;;;;8.37;77.88;98788.16;4976970;28;45471;-49
2021/12/10 05:54:52;;;;;;;;;4.33;1.67;;;;;8.37;77.98;98782.84;4976492;28;46057;-48
2021/12/10 05:57:19;;;;;;;;;0.67;0.67;;;;;8.35;78.39;98784.84;4976678;28;45375;-48
2021/12/10 05:59:45;;;;;;;;;0.00;0.00;;;;;8.37;78.68;98788.97;4977029;28;45343;-47
2021/12/10 06:02:10;;;;;;;;;4.67;2.67;;;;;8.28;78.23;98782.09;4976648;28;45437;-46
2021/12/10 06:04:36;;;;;;;;;2.00;1.00;;;;;8.36;78.69;98791.78;4976353;28;47049;-50
2021/12/10 06:07:04;;;;;;;;;0.33;0.33;;;;;8.37;77.98;98798.75;4976570;28;45248;-50
2021/12/10 06:09:30;;;;;;;;;4.00;1.00;;;;;8.36;78.95;98805.03;4976598;28;45331;-48
2021/12/10 06:11:56;;;;;;;;;0.00;0.00;;;;;8.27;78.45;98788.38;4976619;28;45369;-49
2021/12/10 06:14:21;;;;;;;;;4.67;1.00;;;;;8.30;78.04;98798.63;4976320;28;47292;-48
2021/12/10 06:16:47;;;;;;;;;4.67;1.00;;;;;8.36;77.57;98826.22;4976340;28;45332;-49
2021/12/10 06:19:12;;;;;;;;;2.00;1.33;;;;;8.36;78.60;98829.69;4976591;28;45443;-48
2021/12/10 06:21:39;;;;;;;;;1.33;1.00;;;;;8.36;78.53;98836.81;4976460;28;45928;-46
2021/12/10 06:24:05;;;;;;;;;1.00;1.00;;;;;8.35;77.97;98838.66;4976347;28;46794;-48
2021/12/10 06:26:31;;;;;;;;;2.00;2.00;;;;;8.33;77.50;98830.03;4976308;28;45442;-46
2021/12/10 06:28:57;;;;;;;;;9.33;1.00;;;;;8.33;77.63;98834.53;4976397;28;45393;-47
2021/12/10 06:31:24;;;;;;;;;1.33;1.33;;;;;8.33;77.90;98845.13;4976341;28;45419;-46
2021/12/10 06:33:50;;;;;;;;;5.00;2.00;;;;;8.32;78.12;98851.44;4976191;28;45556;-45
2021/12/10 06:36:17;;;;;;;;;1.00;1.00;;;;;8.32;78.35;98843.47;4975828;28;45360;-48
2021/12/10 06:38:44;;;;;;;;;1.67;0.33;;;;;8.29;77.97;98849.94;4976280;28;45351;-49
2021/12/10 06:41:10;;;;;;;;;4.33;2.00;;;;;8.29;78.66;98849.13;4976341;28;45404;-47
2021/12/10 06:43:35;;;;;;;;;2.00;0.33;;;;;8.25;78.56;98862.72;4975967;28;45334;-45
2021/12/10 06:46:04;;;;;;;;;2.67;2.67;;;;;8.25;78.01;98865.38;4975895;28;45288;-46
2021/12/10 06:48:30;;;;;;;;;1.00;1.00;;;;;8.18;78.89;98855.69;4976168;28;45370;-47
2021/12/10 06:50:58;;;;;;;;;4.67;1.33;;;;;8.25;79.06;98870.66;4976284;28;45537;-46
2021/12/10 06:53:26;;;;;;;;;3.33;2.00;;;;;8.25;79.06;98886.56;4976057;28;47324;-47
2021/12/10 06:55:52;;;;;;;;;6.00;2.00;;;;;8.25;79.04;98896.34;4976815;28;45248;-48
2021/12/10 06:58:18;;;;;;;;;3.67;1.33;;;;;8.22;79.19;98910.78;4976164;28;45441;-49
2021/12/10 07:00:48;;;;;;;;;2.00;0.00;;;;;8.20;78.77;98911.94;4979556;28;45468;-48
2021/12/10 07:03:18;;;;;;;;;1.00;0.67;;;;;8.17;78.33;98921.03;4979246;28;45342;-48
2021/12/10 07:05:44;;;;;;;;;1.00;1.00;;;;;8.17;78.13;98922.88;4979406;28;45391;-49
2021/12/10 07:08:10;;;;;;;;;2.00;1.00;;;;;8.10;78.25;98916.66;4979439;28;45493;-51
2021/12/10 07:10:37;;;;;;;;;1.00;1.00;;;;;8.13;78.02;98919.78;4979326;28;45340;-48
2021/12/10 07:13:06;;;;;;;;;1.00;1.00;;;;;8.14;77.71;98931.19;4978862;28;46303;-48
2021/12/10 07:15:37;;;;;;;;;1.33;1.33;;;;;8.12;77.88;98943.78;4978960;28;45280;-49
2021/12/10 07:18:04;;;;;;;;;1.00;0.00;;;;;8.07;78.64;98954.06;4979267;28;45265;-51
2021/12/10 07:20:29;;;;;;;;;1.67;1.00;;;;;8.10;78.13;98966.97;4979066;28;45209;-48
2021/12/10 07:22:55;;;;;;;;;3.00;1.00;;;;;8.08;78.00;98977.72;4979084;28;46956;-49
2021/12/10 07:25:21;;;;;;;;;0.67;0.67;;;;;8.10;77.64;98983.69;4961433;28;45388;-50
2021/12/10 07:27:48;;;;;;;;;1.00;1.00;;;;;8.10;77.68;98990.81;4978952;28;45218;-49
2021/12/10 07:30:16;;;;;;;;;1.67;0.00;;;;;8.10;78.07;98983.69;4979360;28;45268;-48
2021/12/10 07:32:41;;;;;;;;;1.00;0.00;;;;;8.11;77.96;98995.91;4978420;28;45470;-48
2021/12/10 07:35:08;;;;;;;;;2.00;1.00;;;;;8.11;77.28;99006.50;4978694;28;45483;-49
2021/12/10 07:37:35;;;;;;;;;3.33;1.00;;;;;7.99;76.96;98984.88;4977758;28;45363;-47
2021/12/10 07:40:00;;;;;;;;;5.00;0.00;;;;;8.09;77.27;99010.31;4978849;28;45390;-47
2021/12/10 07:42:26;;;;;;;;;0.00;0.00;;;;;8.11;77.19;99021.59;4978927;28;46066;-46
2021/12/10 07:44:54;;;;;;;;;1.00;1.00;;;;;8.12;76.76;99041.75;4978974;28;45189;-48
2021/12/10 07:47:20;;;;;;;;;1.00;1.00;;;;;8.09;76.74;99048.25;4979024;28;45384;-48
2021/12/10 07:49:46;;;;;;;;;5.00;1.00;;;;;8.10;76.33;99064.97;4978856;28;45518;-49
2021/12/10 07:52:22;;;;;;;;;0.67;0.33;;;;;8.05;77.13;99057.53;4978561;28;45411;-49
2021/12/10 07:54:49;;;;;;;;;1.00;0.00;;;;;8.05;75.92;99048.72;4978611;28;45359;-56
2021/12/10 07:57:16;;;;;;;;;3.67;0.33;;;;;8.01;75.95;99064.16;4978562;28;45233;-56
2021/12/10 07:59:42;;;;;;;;;1.33;0.00;;;;;8.04;76.37;99071.75;4978751;28;45438;-47
2021/12/10 08:02:08;;;;;;;;;0.00;0.00;;;;;7.98;75.04;99072.44;4978588;28;46176;-56
2021/12/10 08:04:34;;;;;;;;;0.00;0.00;;;;;7.97;74.20;99058.38;4978346;28;45370;-56
2021/12/10 08:06:59;;;;;;;;;0.00;0.00;;;;;7.98;74.46;99077.75;4978612;28;45442;-56
2021/12/10 08:09:25;;;;;;;;;0.33;0.33;;;;;7.96;74.63;99082.38;4978874;28;45391;-55
2021/12/10 08:11:50;;;;;;;;;0.00;0.00;;;;;7.97;74.44;99084.88;4978222;28;47117;-57
2021/12/10 08:14:16;;;;;;;;;2.00;0.00;;;;;7.98;75.15;99099.75;4978428;28;45367;-49
2021/12/10 08:16:42;;;;;;;;;2.00;0.00;;;;;7.99;74.59;99095.28;4978146;28;45506;-47
2021/12/10 08:19:10;;;;;;;;;0.00;0.00;;;;;7.96;74.76;99107.03;4978573;28;45275;-56
2021/12/10 08:21:36;;;;;;;;;1.00;1.00;;;;;7.93;74.55;99114.50;4977053;28;46106;-49
2021/12/10 08:24:01;;;;;;;;;1.00;1.00;;;;;7.93;73.45;99114.50;4977777;28;45274;-52
2021/12/10 08:26:27;;;;;;;;;0.00;0.00;;;;;7.92;74.08;99132.22;4977767;28;45687;-48
2021/12/10 08:28:53;;;;;;;;;0.00;0.00;;;;;7.92;73.40;99131.34;4978262;28;45529;-54
2021/12/10 08:31:19;;;;;;;;;3.00;0.00;;;;;7.90;72.95;99136.84;4997489;28;46504;-49
2021/12/10 08:33:48;;;;;;;;;2.67;0.00;;;;;7.86;72.69;99145.28;4996560;28;45398;-46
2021/12/10 08:36:15;;;;;;;;;0.00;0.00;;;;;7.86;72.61;99151.41;4994166;28;45449;-56
2021/12/10 08:38:40;;;;;;;;;0.00;0.00;;;;;7.85;72.22;99164.81;4980858;28;45470;-56
2021/12/10 08:41:18;;;;;;;;;1.00;1.00;;;;;7.84;72.47;99156.06;4976788;28;45405;-48
2021/12/10 08:43:44;;;;;;;;;0.00;0.00;;;;;7.85;70.74;99175.41;4977214;28;45492;-55
2021/12/10 08:46:10;;;;;;;;;1.67;0.00;;;;;7.85;71.18;99180.69;4976814;28;45358;-56
2021/12/10 08:48:37;;;;;;;;;1.00;0.00;;;;;7.85;71.31;99180.69;4977201;28;45379;-51
2021/12/10 08:51:10;;;;;;;;;0.00;0.00;;;;;7.87;71.04;99182.16;4976305;28;45429;-57
2021/12/10 08:53:36;;;;;;;;;0.00;0.00;;;;;7.83;70.36;99182.69;4976769;28;45799;-53
2021/12/10 08:56:02;;;;;;;;;1.00;1.00;;;;;7.83;71.01;99186.16;4976446;28;45438;-49
2021/12/10 08:58:28;;;;;;;;;1.00;1.00;;;;;7.79;70.18;99186.66;4976888;28;45750;-45
2021/12/10 09:01:06;;;;;;;;;1.00;1.00;;;;;7.91;71.53;99211.78;4976397;28;46143;-46
2021/12/10 09:03:32;;;;;;;;;0.00;0.00;;;;;7.86;70.72;99208.81;4976299;28;45406;-45
2021/12/10 09:05:59;;;;;;;;;0.00;0.00;;;;;7.91;70.44;99227.69;4976573;28;45545;-56
2021/12/10 09:08:25;;;;;;;;;1.00;0.00;;;;;7.85;69.66;99213.28;4976922;28;45534;-57
2021/12/10 09:10:50;;;;;;;;;4.00;1.00;;;;;7.98;70.88;99232.16;4975866;28;46196;-56
2021/12/10 09:13:20;;;;;;;;;0.67;0.33;;;;;8.03;69.76;99236.94;4976683;28;45359;-48
2021/12/10 09:15:51;;;;;;;;;0.67;0.67;;;;;8.04;70.10;99240.41;4976423;28;45314;-55
2021/12/10 09:18:17;;;;;;;;;1.33;0.00;;;;;8.03;69.98;99250.19;4974055;28;45463;-52
2021/12/10 09:20:48;;;;;;;;;3.00;1.00;;;;;8.09;70.37;99246.88;4976097;28;45474;-57
2021/12/10 09:23:20;;;;;;;;;0.00;0.00;;;;;8.29;69.05;99251.78;4976490;28;45553;-57
2021/12/10 09:25:46;;;;;;;;;0.00;0.00;;;;;9.02;68.13;99261.34;4976071;28;45566;-54
2021/12/10 09:28:11;;;;;;;;;1.67;0.00;;;;;9.40;66.63;99252.56;4976662;28;45242;-54
2021/12/10 09:30:39;;;;;;;;;1.00;0.00;;;;;9.28;67.11;99274.34;4976024;28;46325;-55
2021/12/10 09:33:05;;;;;;;;;3.33;1.00;;;;;9.02;67.25;99275.47;4975779;28;45809;-55
2021/12/10 09:35:33;;;;;;;;;5.33;1.00;;;;;8.86;68.59;99275.53;4976939;28;45761;-47
2021/12/10 09:37:58;;;;;;;;;4.67;1.33;;;;;8.80;67.62;99277.03;4976559;28;45479;-47
2021/12/10 09:40:31;;;;;;;;;4.67;1.33;;;;;8.78;68.32;99286.19;4975914;28;46568;-49
2021/12/10 09:42:57;;;;;;;;;0.67;0.67;;;;;8.79;67.63;99282.50;4975825;28;45872;-47
2021/12/10 09:45:25;;;;;;;;;3.00;1.00;;;;;8.75;68.62;99297.94;4976048;28;45477;-49
2021/12/10 09:47:51;;;;;;;;;2.67;2.67;;;;;8.74;68.09;99304.25;4976029;28;45411;-47
2021/12/10 09:50:22;;;;;;;;;2.00;1.00;;;;;8.73;67.37;99311.38;4975914;28;46240;-50
2021/12/10 09:52:47;;;;;;;;;1.00;1.00;;;;;8.70;67.60;99309.06;4975429;28;45383;-56
2021/12/10 09:55:16;;;;;;;;;1.33;1.00;;;;;9.42;67.54;99308.09;4975884;28;45442;-54
2021/12/10 09:57:43;;;;;;;;;1.00;1.00;;;;;11.26;63.21;99310.47;4975916;28;45311;-54
2021/12/10 10:00:18;;;;;;;;;4.33;0.67;;;;;11.20;61.83;99320.00;4975464;28;47297;-57
2021/12/10 10:02:44;;;;;;;;;2.00;2.00;;;;;12.01;60.62;99323.41;4975311;28;45447;-47
2021/12/10 10:05:10;;;;;;;;;3.67;2.00;;;;;12.93;57.57;99317.91;4975583;28;45425;-57
2021/12/10 10:07:37;;;;;;;;;1.00;1.00;;;;;13.93;55.29;99316.47;4975920;28;45431;-46
2021/12/10 10:10:14;;;;;;;;;4.67;1.00;;;;;13.89;55.25;99307.22;4975265;28;47113;-56
2021/12/10 10:12:43;;;;;;;;;2.00;1.00;;;;;13.19;55.23;99317.25;4975495;28;45316;-55
2021/12/10 10:15:17;;;;;;;;;1.00;1.00;;;;;12.33;57.83;99326.53;4975245;28;45541;-53
2021/12/10 10:17:43;;;;;;;;;1.00;1.00;;;;;11.45;57.89;99345.28;4985004;28;45382;-47
2021/12/10 10:20:13;;;;;;;;;3.00;1.00;;;;;10.98;59.43;99365.16;4994706;28;46252;-54
2021/12/10 10:22:39;;;;;;;;;2.00;1.00;;;;;10.50;60.02;99371.78;4994738;28;45477;-54
2021/12/10 10:25:08;;;;;;;;;1.33;0.00;;;;;10.15;61.49;99368.69;4995173;28;45348;-55
2021/12/10 10:27:36;;;;;;;;;1.00;1.00;;;;;9.92;61.51;99363.41;4995042;28;45409;-58
2021/12/10 10:30:52;;;;;;;;;2.00;1.00;;;;;9.73;62.91;99355.88;4994274;28;47368;-52
2021/12/10 10:33:17;;;;;;;;;7.67;2.00;;;;;10.02;62.89;99365.81;4918403;28;45498;-55
2021/12/10 10:35:50;;;;;;;;;7.33;0.33;;;;;10.41;61.81;99375.53;4918212;28;45500;-55
2021/12/10 10:38:16;;;;;;;;;2.67;1.00;;;;;10.60;61.82;99376.84;4918902;28;45455;-50
2021/12/10 10:40:48;;;;;;;;;5.00;2.00;;;;;10.93;61.12;99380.03;4918492;28;46206;-56
2021/12/10 10:43:14;;;;;;;;;5.67;2.00;;;;;11.06;60.18;99382.88;4918222;28;45462;-50
2021/12/10 10:45:44;;;;;;;;;1.00;1.00;;;;;11.11;60.07;99388.47;4912220;28;45475;-57
2021/12/10 10:48:11;;;;;;;;;6.00;1.00;;;;;10.93;59.58;99378.19;4880779;29;45447;-50
2021/12/10 10:50:49;;;;;;;;;2.33;2.00;;;;;11.12;59.84;99384.78;4880269;29;45480;-55
2021/12/10 10:53:17;;;;;;;;;6.00;1.33;;;;;11.12;58.27;99392.78;4890040;28;45459;-55
2021/12/10 10:55:49;;;;;;;;;1.00;1.00;;;;;11.45;57.95;99379.91;4897963;28;45746;-52
2021/12/10 10:58:16;;;;;;;;;1.00;0.00;;;;;12.11;55.31;99385.22;4899837;29;45485;-58
2021/12/10 11:00:50;;;;;;;;;3.00;3.00;;;;;12.75;55.22;99389.66;4899122;29;46263;-48
2021/12/10 11:03:23;;;;;;;;;0.67;0.67;;;;;13.16;54.77;99394.25;4899111;29;45385;-56
2021/12/10 11:05:53;;;;;;;;;2.33;1.00;;;;;13.46;52.69;99387.66;4899403;29;45543;-53
2021/12/10 11:08:31;;;;;;;;;2.00;1.00;;;;;14.18;51.45;99404.16;4975964;28;45601;-52
2021/12/10 11:11:15;;;;;;;;;2.67;1.00;;;;;15.04;49.02;99401.50;4977785;28;45466;-46
2021/12/10 11:13:42;;;;;;;;;0.67;0.00;;;;;13.89;49.02;99399.97;4978299;28;45377;-47
2021/12/10 11:16:10;;;;;;;;;2.00;1.00;;;;;13.08;49.82;99415.78;4978498;28;45796;-47
2021/12/10 11:18:51;;;;;;;;;0.00;0.00;;;;;12.33;53.38;99418.03;4978677;28;45847;-45
2021/12/10 11:21:35;;;;;;;;;3.00;2.00;;;;;12.86;50.93;99418.50;4978409;28;46209;-46
2021/12/10 11:24:19;;;;;;;;;3.33;2.00;;;;;13.46;50.26;99427.72;4977684;28;45508;-47
2021/12/10 11:26:59;;;;;;;;;2.67;1.00;;;;;13.39;49.16;99434.88;4977929;28;45410;-47
2021/12/10 11:29:48;;;;;;;;;3.33;2.00;;;;;12.68;50.70;99432.31;4978192;28;45272;-47
2021/12/10 11:32:26;;;;;;;;;2.00;2.00;;;;;12.57;52.28;99422.16;4977791;28;47053;-46
2021/12/10 11:34:54;;;;;;;;;2.00;0.00;;;;;12.94;51.35;99457.56;4977721;28;45443;-47
2021/12/10 11:37:40;;;;;;;;;3.33;2.00;;;;;12.93;49.75;99451.38;4977907;28;45921;-46
2021/12/10 11:40:23;;;;;;;;;5.33;1.33;;;;;12.54;50.50;99451.06;4978141;28;45742;-48
2021/12/10 11:42:55;;;;;;;;;3.67;1.00;;;;;12.15;50.85;99457.63;4976066;28;46354;-48
2021/12/10 11:45:34;;;;;;;;;3.00;1.33;;;;;11.76;52.20;99452.63;4977782;28;45363;-48
2021/12/10 11:48:12;;;;;;;;;2.00;2.00;;;;;11.43;52.72;99469.00;4977815;28;45322;-45
2021/12/10 11:50:55;;;;;;;;;3.67;1.00;;;;;11.23;53.03;99468.69;4977841;28;45587;-48
2021/12/10 11:53:21;;;;;;;;;2.00;1.00;;;;;11.20;52.64;99474.38;4977384;28;46386;-47
2021/12/10 11:56:07;;;;;;;;;2.00;0.00;;;;;11.12;53.17;99485.09;4986131;28;45391;-48